sensor_id;sensor_type;location;lat;lon;timestamp;P1;durP1;ratioP1;P2;durP2;ratioP2
75603;SDS011;64187;51.010;13.792;2023-05-31T00:01:14;3.58;;;1.65;;
75603;SDS011;64187;51.010;13.792;2023-05-31T00:06:13;2.60;;;1.83;;
75603;SDS011;64187;51.010;13.792;2023-05-31T00:11:12;4.53;;;2.08;;
75603;SDS011;64187;51.010;13.792;2023-05-31T00:16:11;4.57;;;2.03;;
75603;SDS011;64187;51.010;13.792;2023-05-31T00:21:30;4.35;;;2.22;;
75603;SDS011;64187;51.010;13.792;2023-05-31T00:26:28;3.40;;;1.75;;
75603;SDS011;64187;51.010;13.792;2023-05-31T00:31:27;3.90;;;2.00;;
75603;SDS011;64187;51.010;13.792;2023-05-31T00:36:27;3.55;;;1.80;;
75603;SDS011;64187;51.010;13.792;2023-05-31T00:41:26;3.05;;;1.70;;
75603;SDS011;64187;51.010;13.792;2023-05-31T00:46:25;3.75;;;1.80;;
75603;SDS011;64187;51.010;13.792;2023-05-31T00:51:27;6.57;;;2.30;;
75603;SDS011;64187;51.010;13.792;2023-05-31T00:56:28;4.60;;;2.00;;
75603;SDS011;64187;51.010;13.792;2023-05-31T01:01:28;4.32;;;1.92;;
75603;SDS011;64187;51.010;13.792;2023-05-31T01:06:32;3.45;;;1.88;;
75603;SDS011;64187;51.010;13.792;2023-05-31T01:16:45;5.43;;;2.22;;
75603;SDS011;64187;51.010;13.792;2023-05-31T01:27:19;3.92;;;2.40;;
75603;SDS011;64187;51.010;13.792;2023-05-31T01:32:19;3.30;;;2.00;;
75603;SDS011;64187;51.010;13.792;2023-05-31T01:37:23;4.63;;;2.30;;
75603;SDS011;64187;51.010;13.792;2023-05-31T01:42:22;4.03;;;2.10;;
75603;SDS011;64187;51.010;13.792;2023-05-31T01:47:23;3.60;;;2.30;;
75603;SDS011;64187;51.010;13.792;2023-05-31T01:52:23;4.78;;;2.70;;
75603;SDS011;64187;51.010;13.792;2023-05-31T01:57:24;3.90;;;2.50;;
75603;SDS011;64187;51.010;13.792;2023-05-31T02:02:24;4.90;;;2.03;;
75603;SDS011;64187;51.010;13.792;2023-05-31T02:07:26;4.43;;;1.80;;
75603;SDS011;64187;51.010;13.792;2023-05-31T02:12:25;3.88;;;2.08;;
75603;SDS011;64187;51.010;13.792;2023-05-31T02:17:24;4.50;;;1.95;;
75603;SDS011;64187;51.010;13.792;2023-05-31T02:22:23;5.35;;;1.90;;
75603;SDS011;64187;51.010;13.792;2023-05-31T02:27:22;3.92;;;2.05;;
75603;SDS011;64187;51.010;13.792;2023-05-31T02:32:22;4.35;;;2.33;;
75603;SDS011;64187;51.010;13.792;2023-05-31T02:37:21;4.18;;;2.28;;
75603;SDS011;64187;51.010;13.792;2023-05-31T02:42:20;3.42;;;2.00;;
75603;SDS011;64187;51.010;13.792;2023-05-31T02:47:19;4.35;;;2.10;;
75603;SDS011;64187;51.010;13.792;2023-05-31T02:52:18;4.10;;;2.55;;
75603;SDS011;64187;51.010;13.792;2023-05-31T02:57:35;4.65;;;2.17;;
75603;SDS011;64187;51.010;13.792;2023-05-31T03:02:34;4.28;;;2.10;;
75603;SDS011;64187;51.010;13.792;2023-05-31T03:07:53;5.93;;;2.42;;
75603;SDS011;64187;51.010;13.792;2023-05-31T03:12:51;9.15;;;2.33;;
75603;SDS011;64187;51.010;13.792;2023-05-31T03:17:50;6.40;;;2.42;;
75603;SDS011;64187;51.010;13.792;2023-05-31T03:22:50;5.78;;;2.25;;
75603;SDS011;64187;51.010;13.792;2023-05-31T03:27:49;4.25;;;2.03;;
75603;SDS011;64187;51.010;13.792;2023-05-31T03:32:49;3.67;;;2.30;;
75603;SDS011;64187;51.010;13.792;2023-05-31T03:37:48;6.75;;;2.38;;
75603;SDS011;64187;51.010;13.792;2023-05-31T03:42:47;7.72;;;2.65;;
75603;SDS011;64187;51.010;13.792;2023-05-31T03:47:46;3.67;;;2.10;;
75603;SDS011;64187;51.010;13.792;2023-05-31T03:52:46;5.00;;;2.22;;
75603;SDS011;64187;51.010;13.792;2023-05-31T03:57:45;3.15;;;1.95;;
75603;SDS011;64187;51.010;13.792;2023-05-31T04:02:44;6.45;;;2.70;;
75603;SDS011;64187;51.010;13.792;2023-05-31T04:08:03;5.43;;;2.17;;
75603;SDS011;64187;51.010;13.792;2023-05-31T04:13:03;4.55;;;2.50;;
75603;SDS011;64187;51.010;13.792;2023-05-31T04:18:02;4.72;;;2.50;;
75603;SDS011;64187;51.010;13.792;2023-05-31T04:23:02;5.53;;;2.10;;
75603;SDS011;64187;51.010;13.792;2023-05-31T04:28:02;7.78;;;2.85;;
75603;SDS011;64187;51.010;13.792;2023-05-31T04:33:07;7.18;;;2.83;;
75603;SDS011;64187;51.010;13.792;2023-05-31T04:38:07;6.43;;;2.67;;
75603;SDS011;64187;51.010;13.792;2023-05-31T04:43:06;9.32;;;2.80;;
75603;SDS011;64187;51.010;13.792;2023-05-31T04:48:07;6.13;;;2.70;;
75603;SDS011;64187;51.010;13.792;2023-05-31T04:53:06;6.60;;;3.22;;
75603;SDS011;64187;51.010;13.792;2023-05-31T04:58:05;9.18;;;3.90;;
75603;SDS011;64187;51.010;13.792;2023-05-31T05:03:06;6.63;;;2.72;;
75603;SDS011;64187;51.010;13.792;2023-05-31T05:08:08;8.55;;;3.20;;
75603;SDS011;64187;51.010;13.792;2023-05-31T05:13:10;9.15;;;2.80;;
75603;SDS011;64187;51.010;13.792;2023-05-31T05:18:11;4.80;;;2.90;;
75603;SDS011;64187;51.010;13.792;2023-05-31T05:23:10;3.70;;;2.30;;
75603;SDS011;64187;51.010;13.792;2023-05-31T05:28:09;5.43;;;3.00;;
75603;SDS011;64187;51.010;13.792;2023-05-31T05:33:09;5.65;;;3.33;;
75603;SDS011;64187;51.010;13.792;2023-05-31T05:38:08;5.00;;;2.78;;
75603;SDS011;64187;51.010;13.792;2023-05-31T05:43:08;5.97;;;2.95;;
75603;SDS011;64187;51.010;13.792;2023-05-31T05:48:21;5.15;;;2.65;;
75603;SDS011;64187;51.010;13.792;2023-05-31T05:53:20;6.22;;;3.10;;
75603;SDS011;64187;51.010;13.792;2023-05-31T05:58:23;6.10;;;2.58;;
75603;SDS011;64187;51.010;13.792;2023-05-31T06:03:48;7.53;;;3.10;;
75603;SDS011;64187;51.010;13.792;2023-05-31T06:08:48;5.38;;;3.05;;
75603;SDS011;64187;51.010;13.792;2023-05-31T06:13:47;5.75;;;2.47;;
75603;SDS011;64187;51.010;13.792;2023-05-31T06:18:49;4.68;;;3.10;;
75603;SDS011;64187;51.010;13.792;2023-05-31T06:23:49;7.32;;;2.58;;
75603;SDS011;64187;51.010;13.792;2023-05-31T06:28:48;9.77;;;3.72;;
75603;SDS011;64187;51.010;13.792;2023-05-31T06:34:07;7.75;;;2.60;;
75603;SDS011;64187;51.010;13.792;2023-05-31T06:39:07;3.95;;;1.95;;
75603;SDS011;64187;51.010;13.792;2023-05-31T06:44:07;9.52;;;2.80;;
75603;SDS011;64187;51.010;13.792;2023-05-31T06:49:12;5.30;;;2.15;;
75603;SDS011;64187;51.010;13.792;2023-05-31T06:54:46;7.30;;;2.70;;
75603;SDS011;64187;51.010;13.792;2023-05-31T06:59:45;5.95;;;2.47;;
75603;SDS011;64187;51.010;13.792;2023-05-31T07:04:45;8.02;;;2.65;;
75603;SDS011;64187;51.010;13.792;2023-05-31T07:09:45;7.28;;;2.25;;
75603;SDS011;64187;51.010;13.792;2023-05-31T07:14:44;5.38;;;2.40;;
75603;SDS011;64187;51.010;13.792;2023-05-31T07:19:44;6.43;;;2.40;;
75603;SDS011;64187;51.010;13.792;2023-05-31T07:24:44;5.20;;;2.45;;
75603;SDS011;64187;51.010;13.792;2023-05-31T07:29:43;6.22;;;2.83;;
75603;SDS011;64187;51.010;13.792;2023-05-31T07:34:42;5.85;;;2.30;;
75603;SDS011;64187;51.010;13.792;2023-05-31T07:40:00;4.28;;;2.05;;
75603;SDS011;64187;51.010;13.792;2023-05-31T07:44:59;5.82;;;2.03;;
75603;SDS011;64187;51.010;13.792;2023-05-31T07:49:58;3.63;;;2.05;;
75603;SDS011;64187;51.010;13.792;2023-05-31T07:55:00;6.68;;;2.38;;
75603;SDS011;64187;51.010;13.792;2023-05-31T08:00:00;3.42;;;1.90;;
75603;SDS011;64187;51.010;13.792;2023-05-31T08:05:09;3.88;;;2.20;;
75603;SDS011;64187;51.010;13.792;2023-05-31T08:10:08;7.22;;;2.22;;
75603;SDS011;64187;51.010;13.792;2023-05-31T08:15:08;5.32;;;2.10;;
75603;SDS011;64187;51.010;13.792;2023-05-31T08:20:07;4.47;;;1.27;;
75603;SDS011;64187;51.010;13.792;2023-05-31T08:25:10;4.20;;;1.70;;
75603;SDS011;64187;51.010;13.792;2023-05-31T08:30:16;3.33;;;1.63;;
75603;SDS011;64187;51.010;13.792;2023-05-31T08:35:15;3.15;;;1.70;;
75603;SDS011;64187;51.010;13.792;2023-05-31T08:40:17;6.05;;;1.90;;
75603;SDS011;64187;51.010;13.792;2023-05-31T08:45:18;4.13;;;1.45;;
75603;SDS011;64187;51.010;13.792;2023-05-31T08:50:21;3.53;;;1.65;;
75603;SDS011;64187;51.010;13.792;2023-05-31T08:55:21;5.43;;;2.17;;
75603;SDS011;64187;51.010;13.792;2023-05-31T09:00:22;4.97;;;1.70;;
75603;SDS011;64187;51.010;13.792;2023-05-31T09:05:22;4.85;;;1.58;;
75603;SDS011;64187;51.010;13.792;2023-05-31T09:10:21;2.55;;;1.83;;
75603;SDS011;64187;51.010;13.792;2023-05-31T09:15:21;4.15;;;1.60;;
75603;SDS011;64187;51.010;13.792;2023-05-31T09:20:29;3.05;;;1.65;;
75603;SDS011;64187;51.010;13.792;2023-05-31T09:30:43;3.63;;;1.80;;
75603;SDS011;64187;51.010;13.792;2023-05-31T09:35:55;4.65;;;1.42;;
75603;SDS011;64187;51.010;13.792;2023-05-31T09:40:55;4.05;;;1.92;;
75603;SDS011;64187;51.010;13.792;2023-05-31T09:45:54;4.55;;;1.25;;
75603;SDS011;64187;51.010;13.792;2023-05-31T09:50:53;5.05;;;1.52;;
75603;SDS011;64187;51.010;13.792;2023-05-31T09:55:52;5.60;;;1.63;;
75603;SDS011;64187;51.010;13.792;2023-05-31T10:00:51;3.83;;;1.73;;
75603;SDS011;64187;51.010;13.792;2023-05-31T10:05:50;3.60;;;1.30;;
75603;SDS011;64187;51.010;13.792;2023-05-31T10:10:49;5.95;;;2.33;;
75603;SDS011;64187;51.010;13.792;2023-05-31T10:15:48;4.97;;;1.50;;
75603;SDS011;64187;51.010;13.792;2023-05-31T10:20:52;3.03;;;1.20;;
75603;SDS011;64187;51.010;13.792;2023-05-31T10:31:05;2.28;;;1.55;;
75603;SDS011;64187;51.010;13.792;2023-05-31T10:36:05;2.92;;;1.60;;
75603;SDS011;64187;51.010;13.792;2023-05-31T10:41:06;4.38;;;1.48;;
75603;SDS011;64187;51.010;13.792;2023-05-31T10:46:09;2.53;;;1.25;;
75603;SDS011;64187;51.010;13.792;2023-05-31T10:51:12;2.63;;;1.30;;
75603;SDS011;64187;51.010;13.792;2023-05-31T10:56:14;3.00;;;1.38;;
75603;SDS011;64187;51.010;13.792;2023-05-31T11:01:14;3.90;;;1.63;;
75603;SDS011;64187;51.010;13.792;2023-05-31T11:06:29;5.35;;;1.45;;
75603;SDS011;64187;51.010;13.792;2023-05-31T11:16:30;2.35;;;1.13;;
75603;SDS011;64187;51.010;13.792;2023-05-31T11:21:52;2.83;;;1.65;;
75603;SDS011;64187;51.010;13.792;2023-05-31T11:26:54;3.33;;;1.45;;
75603;SDS011;64187;51.010;13.792;2023-05-31T11:31:56;2.53;;;1.55;;
75603;SDS011;64187;51.010;13.792;2023-05-31T11:36:59;3.30;;;1.33;;
75603;SDS011;64187;51.010;13.792;2023-05-31T11:42:02;2.13;;;1.52;;
75603;SDS011;64187;51.010;13.792;2023-05-31T11:47:05;4.05;;;1.98;;
75603;SDS011;64187;51.010;13.792;2023-05-31T11:52:07;4.63;;;1.50;;
75603;SDS011;64187;51.010;13.792;2023-05-31T11:57:07;3.45;;;1.73;;
75603;SDS011;64187;51.010;13.792;2023-05-31T12:02:07;3.35;;;1.50;;
75603;SDS011;64187;51.010;13.792;2023-05-31T12:07:09;3.25;;;1.52;;
75603;SDS011;64187;51.010;13.792;2023-05-31T12:12:10;3.13;;;1.48;;
75603;SDS011;64187;51.010;13.792;2023-05-31T12:17:10;4.38;;;2.53;;
75603;SDS011;64187;51.010;13.792;2023-05-31T12:22:09;2.63;;;1.38;;
75603;SDS011;64187;51.010;13.792;2023-05-31T12:27:08;3.65;;;1.92;;
75603;SDS011;64187;51.010;13.792;2023-05-31T12:32:09;2.60;;;1.52;;
75603;SDS011;64187;51.010;13.792;2023-05-31T12:37:09;4.55;;;1.70;;
75603;SDS011;64187;51.010;13.792;2023-05-31T12:42:08;3.25;;;1.60;;
75603;SDS011;64187;51.010;13.792;2023-05-31T12:47:08;3.85;;;1.42;;
75603;SDS011;64187;51.010;13.792;2023-05-31T12:52:08;4.43;;;1.63;;
75603;SDS011;64187;51.010;13.792;2023-05-31T12:57:09;2.47;;;1.45;;
75603;SDS011;64187;51.010;13.792;2023-05-31T13:02:08;4.28;;;1.67;;
75603;SDS011;64187;51.010;13.792;2023-05-31T13:07:07;3.65;;;1.80;;
75603;SDS011;64187;51.010;13.792;2023-05-31T13:12:12;3.50;;;2.03;;
75603;SDS011;64187;51.010;13.792;2023-05-31T13:17:11;4.03;;;1.90;;
75603;SDS011;64187;51.010;13.792;2023-05-31T13:22:12;3.55;;;1.50;;
75603;SDS011;64187;51.010;13.792;2023-05-31T13:27:11;2.78;;;2.00;;
75603;SDS011;64187;51.010;13.792;2023-05-31T13:32:10;3.45;;;1.75;;
75603;SDS011;64187;51.010;13.792;2023-05-31T13:37:09;2.33;;;1.38;;
75603;SDS011;64187;51.010;13.792;2023-05-31T13:42:10;3.95;;;1.63;;
75603;SDS011;64187;51.010;13.792;2023-05-31T13:47:09;2.20;;;1.67;;
75603;SDS011;64187;51.010;13.792;2023-05-31T13:52:08;4.97;;;1.73;;
75603;SDS011;64187;51.010;13.792;2023-05-31T13:57:12;3.58;;;2.50;;
75603;SDS011;64187;51.010;13.792;2023-05-31T14:02:11;4.28;;;1.92;;
75603;SDS011;64187;51.010;13.792;2023-05-31T14:07:10;4.68;;;1.58;;
75603;SDS011;64187;51.010;13.792;2023-05-31T14:12:09;3.75;;;3.03;;
75603;SDS011;64187;51.010;13.792;2023-05-31T14:17:10;3.83;;;2.40;;
75603;SDS011;64187;51.010;13.792;2023-05-31T14:22:09;3.67;;;2.20;;
75603;SDS011;64187;51.010;13.792;2023-05-31T14:27:08;4.78;;;2.03;;
75603;SDS011;64187;51.010;13.792;2023-05-31T14:32:07;3.17;;;1.95;;
75603;SDS011;64187;51.010;13.792;2023-05-31T14:37:08;4.75;;;1.92;;
75603;SDS011;64187;51.010;13.792;2023-05-31T14:42:17;4.93;;;1.67;;
75603;SDS011;64187;51.010;13.792;2023-05-31T14:47:16;3.00;;;1.95;;
75603;SDS011;64187;51.010;13.792;2023-05-31T14:52:23;3.30;;;2.15;;
75603;SDS011;64187;51.010;13.792;2023-05-31T14:57:23;3.85;;;1.73;;
75603;SDS011;64187;51.010;13.792;2023-05-31T15:02:22;3.15;;;1.77;;
75603;SDS011;64187;51.010;13.792;2023-05-31T15:07:23;4.03;;;2.10;;
75603;SDS011;64187;51.010;13.792;2023-05-31T15:12:22;3.60;;;2.40;;
75603;SDS011;64187;51.010;13.792;2023-05-31T15:17:26;4.20;;;1.83;;
75603;SDS011;64187;51.010;13.792;2023-05-31T15:22:25;5.40;;;1.85;;
75603;SDS011;64187;51.010;13.792;2023-05-31T15:27:24;4.78;;;2.00;;
75603;SDS011;64187;51.010;13.792;2023-05-31T15:32:23;3.15;;;1.63;;
75603;SDS011;64187;51.010;13.792;2023-05-31T15:37:22;4.78;;;1.90;;
75603;SDS011;64187;51.010;13.792;2023-05-31T15:42:21;3.60;;;2.13;;
75603;SDS011;64187;51.010;13.792;2023-05-31T15:47:20;7.03;;;2.20;;
75603;SDS011;64187;51.010;13.792;2023-05-31T15:52:20;2.90;;;1.90;;
75603;SDS011;64187;51.010;13.792;2023-05-31T15:57:19;3.15;;;1.95;;
75603;SDS011;64187;51.010;13.792;2023-05-31T16:02:18;3.67;;;1.70;;
75603;SDS011;64187;51.010;13.792;2023-05-31T16:07:17;4.80;;;2.10;;
75603;SDS011;64187;51.010;13.792;2023-05-31T16:12:16;3.13;;;2.05;;
75603;SDS011;64187;51.010;13.792;2023-05-31T16:17:15;7.65;;;2.35;;
75603;SDS011;64187;51.010;13.792;2023-05-31T16:22:14;4.57;;;2.15;;
75603;SDS011;64187;51.010;13.792;2023-05-31T16:27:15;5.20;;;2.00;;
75603;SDS011;64187;51.010;13.792;2023-05-31T16:32:15;3.45;;;2.13;;
75603;SDS011;64187;51.010;13.792;2023-05-31T16:37:14;6.55;;;2.20;;
75603;SDS011;64187;51.010;13.792;2023-05-31T16:42:16;3.17;;;1.90;;
75603;SDS011;64187;51.010;13.792;2023-05-31T16:47:15;3.92;;;2.13;;
75603;SDS011;64187;51.010;13.792;2023-05-31T16:52:14;5.88;;;2.00;;
75603;SDS011;64187;51.010;13.792;2023-05-31T16:57:14;3.75;;;2.35;;
75603;SDS011;64187;51.010;13.792;2023-05-31T17:07:18;5.05;;;2.75;;
75603;SDS011;64187;51.010;13.792;2023-05-31T17:12:17;4.43;;;2.13;;
75603;SDS011;64187;51.010;13.792;2023-05-31T17:17:16;6.05;;;2.42;;
75603;SDS011;64187;51.010;13.792;2023-05-31T17:22:15;5.07;;;2.38;;
75603;SDS011;64187;51.010;13.792;2023-05-31T17:27:14;3.20;;;2.30;;
75603;SDS011;64187;51.010;13.792;2023-05-31T17:32:13;5.10;;;2.47;;
75603;SDS011;64187;51.010;13.792;2023-05-31T17:37:15;5.95;;;2.47;;
75603;SDS011;64187;51.010;13.792;2023-05-31T17:42:14;3.28;;;2.00;;
75603;SDS011;64187;51.010;13.792;2023-05-31T17:47:13;4.43;;;2.13;;
75603;SDS011;64187;51.010;13.792;2023-05-31T17:52:12;3.42;;;2.45;;
75603;SDS011;64187;51.010;13.792;2023-05-31T17:57:11;5.13;;;2.67;;
75603;SDS011;64187;51.010;13.792;2023-05-31T18:02:10;5.13;;;2.55;;
75603;SDS011;64187;51.010;13.792;2023-05-31T18:07:09;4.80;;;2.03;;
75603;SDS011;64187;51.010;13.792;2023-05-31T18:12:11;4.85;;;2.30;;
75603;SDS011;64187;51.010;13.792;2023-05-31T18:17:10;4.50;;;2.17;;
75603;SDS011;64187;51.010;13.792;2023-05-31T18:22:09;3.97;;;2.05;;
75603;SDS011;64187;51.010;13.792;2023-05-31T18:27:18;2.95;;;2.20;;
75603;SDS011;64187;51.010;13.792;2023-05-31T18:32:18;4.80;;;2.03;;
75603;SDS011;64187;51.010;13.792;2023-05-31T18:37:19;4.00;;;2.45;;
75603;SDS011;64187;51.010;13.792;2023-05-31T18:42:20;4.43;;;2.33;;
75603;SDS011;64187;51.010;13.792;2023-05-31T18:47:19;4.88;;;1.98;;
75603;SDS011;64187;51.010;13.792;2023-05-31T18:52:18;2.80;;;2.00;;
75603;SDS011;64187;51.010;13.792;2023-05-31T18:57:17;4.25;;;2.30;;
75603;SDS011;64187;51.010;13.792;2023-05-31T19:02:16;2.92;;;1.63;;
75603;SDS011;64187;51.010;13.792;2023-05-31T19:07:15;4.75;;;2.30;;
75603;SDS011;64187;51.010;13.792;2023-05-31T19:12:14;5.40;;;2.20;;
75603;SDS011;64187;51.010;13.792;2023-05-31T19:17:28;4.47;;;2.22;;
75603;SDS011;64187;51.010;13.792;2023-05-31T19:22:34;3.80;;;1.70;;
75603;SDS011;64187;51.010;13.792;2023-05-31T19:27:44;6.00;;;2.35;;
75603;SDS011;64187;51.010;13.792;2023-05-31T19:32:44;7.47;;;3.20;;
75603;SDS011;64187;51.010;13.792;2023-05-31T19:37:43;3.25;;;1.90;;
75603;SDS011;64187;51.010;13.792;2023-05-31T19:42:42;4.65;;;2.20;;
75603;SDS011;64187;51.010;13.792;2023-05-31T19:47:48;5.30;;;2.40;;
75603;SDS011;64187;51.010;13.792;2023-05-31T19:52:48;5.00;;;2.50;;
75603;SDS011;64187;51.010;13.792;2023-05-31T19:57:47;4.57;;;3.10;;
75603;SDS011;64187;51.010;13.792;2023-05-31T20:02:46;7.28;;;2.35;;
75603;SDS011;64187;51.010;13.792;2023-05-31T20:07:45;3.42;;;2.38;;
75603;SDS011;64187;51.010;13.792;2023-05-31T20:12:46;6.57;;;2.42;;
75603;SDS011;64187;51.010;13.792;2023-05-31T20:17:45;5.55;;;1.98;;
75603;SDS011;64187;51.010;13.792;2023-05-31T20:22:45;4.03;;;2.25;;
75603;SDS011;64187;51.010;13.792;2023-05-31T20:27:44;4.53;;;2.05;;
75603;SDS011;64187;51.010;13.792;2023-05-31T20:32:43;4.38;;;2.20;;
75603;SDS011;64187;51.010;13.792;2023-05-31T20:37:43;3.83;;;2.05;;
75603;SDS011;64187;51.010;13.792;2023-05-31T20:42:42;3.85;;;2.20;;
75603;SDS011;64187;51.010;13.792;2023-05-31T20:47:41;4.30;;;2.70;;
75603;SDS011;64187;51.010;13.792;2023-05-31T20:52:40;4.82;;;2.38;;
75603;SDS011;64187;51.010;13.792;2023-05-31T20:57:40;5.15;;;2.28;;
75603;SDS011;64187;51.010;13.792;2023-05-31T21:02:40;5.72;;;2.30;;
75603;SDS011;64187;51.010;13.792;2023-05-31T21:07:39;4.72;;;2.03;;
75603;SDS011;64187;51.010;13.792;2023-05-31T21:12:38;4.80;;;2.17;;
75603;SDS011;64187;51.010;13.792;2023-05-31T21:17:37;4.75;;;2.53;;
75603;SDS011;64187;51.010;13.792;2023-05-31T21:22:36;5.22;;;2.28;;
75603;SDS011;64187;51.010;13.792;2023-05-31T21:27:34;4.15;;;2.60;;
75603;SDS011;64187;51.010;13.792;2023-05-31T21:32:33;4.68;;;2.67;;
75603;SDS011;64187;51.010;13.792;2023-05-31T21:37:33;3.58;;;2.03;;
75603;SDS011;64187;51.010;13.792;2023-05-31T21:42:32;6.63;;;3.35;;
75603;SDS011;64187;51.010;13.792;2023-05-31T21:47:30;5.38;;;3.00;;
75603;SDS011;64187;51.010;13.792;2023-05-31T21:52:29;6.95;;;3.90;;
75603;SDS011;64187;51.010;13.792;2023-05-31T21:57:30;3.25;;;2.00;;
75603;SDS011;64187;51.010;13.792;2023-05-31T22:02:29;3.35;;;2.15;;
75603;SDS011;64187;51.010;13.792;2023-05-31T22:07:28;3.38;;;2.03;;
75603;SDS011;64187;51.010;13.792;2023-05-31T22:12:27;4.22;;;2.28;;
75603;SDS011;64187;51.010;13.792;2023-05-31T22:17:26;5.28;;;2.60;;
75603;SDS011;64187;51.010;13.792;2023-05-31T22:22:27;4.15;;;2.50;;
75603;SDS011;64187;51.010;13.792;2023-05-31T22:27:26;3.83;;;2.13;;
75603;SDS011;64187;51.010;13.792;2023-05-31T22:32:25;4.00;;;2.38;;
75603;SDS011;64187;51.010;13.792;2023-05-31T22:37:24;3.80;;;1.98;;
75603;SDS011;64187;51.010;13.792;2023-05-31T22:42:23;4.63;;;2.40;;
75603;SDS011;64187;51.010;13.792;2023-05-31T22:47:22;8.05;;;2.70;;
75603;SDS011;64187;51.010;13.792;2023-05-31T22:52:21;4.93;;;2.70;;
75603;SDS011;64187;51.010;13.792;2023-05-31T22:57:20;4.90;;;2.63;;
75603;SDS011;64187;51.010;13.792;2023-05-31T23:02:19;4.93;;;2.72;;
75603;SDS011;64187;51.010;13.792;2023-05-31T23:07:18;4.80;;;2.33;;
75603;SDS011;64187;51.010;13.792;2023-05-31T23:12:17;3.55;;;2.20;;
75603;SDS011;64187;51.010;13.792;2023-05-31T23:17:19;3.42;;;2.33;;
75603;SDS011;64187;51.010;13.792;2023-05-31T23:22:17;3.63;;;2.90;;
75603;SDS011;64187;51.010;13.792;2023-05-31T23:27:16;8.23;;;4.38;;
75603;SDS011;64187;51.010;13.792;2023-05-31T23:32:15;5.28;;;2.83;;
75603;SDS011;64187;51.010;13.792;2023-05-31T23:37:14;6.00;;;2.45;;
75603;SDS011;64187;51.010;13.792;2023-05-31T23:42:14;4.03;;;2.50;;
75603;SDS011;64187;51.010;13.792;2023-05-31T23:47:13;3.28;;;2.33;;
75603;SDS011;64187;51.010;13.792;2023-05-31T23:52:12;5.40;;;2.40;;
75603;SDS011;64187;51.010;13.792;2023-05-31T23:57:11;4.15;;;2.35;;
